createdAt,value
2023-07-03T00:03:48.840Z,23.51
2023-07-03T00:09:33.245Z,23.44
2023-07-03T00:15:18.859Z,23.41
2023-07-03T00:21:03.316Z,23.35
2023-07-03T00:26:47.664Z,23.32
2023-07-03T00:32:31.898Z,23.26
2023-07-03T00:38:16.580Z,23.18
2023-07-03T00:44:00.813Z,23.12
2023-07-03T00:49:45.174Z,23.04
2023-07-03T00:55:31.197Z,22.99
2023-07-03T01:01:20.645Z,22.98
2023-07-03T01:07:07.769Z,22.93
2023-07-03T01:12:54.513Z,22.86
2023-07-03T01:18:39.373Z,22.84
2023-07-03T01:24:36.537Z,22.77
2023-07-03T01:30:22.398Z,22.74
2023-07-03T01:36:07.750Z,22.71
2023-07-03T01:41:52.145Z,22.66
2023-07-03T01:47:36.684Z,22.61
2023-07-03T01:53:25.402Z,22.59
2023-07-03T01:59:11.121Z,22.67
2023-07-03T02:04:58.794Z,22.61
2023-07-03T02:10:43.269Z,22.55
2023-07-03T02:16:27.629Z,22.55
2023-07-03T02:22:12.146Z,22.52
2023-07-03T02:27:56.726Z,22.48
2023-07-03T02:33:40.950Z,22.52
2023-07-03T02:39:25.194Z,22.48
2023-07-03T02:45:10.009Z,22.47
2023-07-03T02:50:56.122Z,22.48
2023-07-03T02:56:40.389Z,22.49
2023-07-03T03:02:24.622Z,22.47
2023-07-03T03:08:09.099Z,22.45
2023-07-03T03:13:53.601Z,22.45
2023-07-03T03:19:37.715Z,22.43
2023-07-03T03:25:22.266Z,22.42
2023-07-03T03:31:06.501Z,22.41
2023-07-03T03:36:51.101Z,22.44
2023-07-03T03:42:35.321Z,22.4
2023-07-03T03:48:19.575Z,22.38
2023-07-03T03:54:04.953Z,22.38
2023-07-03T03:59:49.179Z,22.42
2023-07-03T04:05:33.621Z,22.42
2023-07-03T04:11:17.608Z,22.43
2023-07-03T04:17:02.056Z,22.47
2023-07-03T04:22:46.405Z,22.51
2023-07-03T04:28:30.480Z,22.49
2023-07-03T04:34:14.700Z,22.54
2023-07-03T04:39:59.098Z,22.6
2023-07-03T04:45:44.185Z,22.66
2023-07-03T04:51:29.118Z,22.68
2023-07-03T04:57:13.733Z,22.75
2023-07-03T05:02:58.460Z,22.82
2023-07-03T05:08:42.960Z,22.91
2023-07-03T05:14:27.274Z,22.99
2023-07-03T05:20:13.128Z,23.08
2023-07-03T05:25:57.442Z,23.13
2023-07-03T05:31:41.653Z,23.14
2023-07-03T05:37:26.187Z,23.22
2023-07-03T05:43:10.440Z,23.3
2023-07-03T05:48:54.682Z,23.4
2023-07-03T05:54:38.981Z,23.53
2023-07-03T06:00:23.545Z,23.78
2023-07-03T06:06:07.886Z,23.93
2023-07-03T06:11:52.141Z,24.01
2023-07-03T06:17:36.602Z,24.07
2023-07-03T06:23:21.124Z,24.1
2023-07-03T06:29:05.975Z,24.22
2023-07-03T06:34:52.088Z,24.34
2023-07-03T06:40:37.268Z,24.42
2023-07-03T06:46:21.539Z,24.6
2023-07-03T06:52:06.234Z,24.76
2023-07-03T06:57:50.486Z,24.87
2023-07-03T07:03:34.830Z,25.14
2023-07-03T07:09:19.871Z,25.12
2023-07-03T07:15:04.420Z,25.12
2023-07-03T07:20:48.804Z,25.56
2023-07-03T07:26:33.469Z,25.8
2023-07-03T07:32:19.306Z,25.95
2023-07-03T07:38:05.983Z,26.23
2023-07-03T07:43:51.767Z,26.42
2023-07-03T07:49:35.915Z,26.83
2023-07-03T07:55:21.107Z,27.3
2023-07-03T08:01:05.826Z,27.08
2023-07-03T08:06:51.188Z,26.99
2023-07-03T08:12:35.850Z,26.83
2023-07-03T08:18:20.151Z,27.02
2023-07-03T08:24:05.311Z,27.54
2023-07-03T08:29:54.212Z,27.44
2023-07-03T08:41:51.269Z,27.57
2023-07-03T08:47:35.897Z,27.45
2023-07-03T08:53:21.464Z,27.1
2023-07-03T08:59:06.428Z,27.12
2023-07-03T09:04:58.437Z,27.42
2023-07-03T09:10:47.578Z,27.37
2023-07-03T09:16:32.685Z,27.37
2023-07-03T09:22:22.285Z,27.66
2023-07-03T09:28:08.502Z,27.45
2023-07-03T09:33:52.966Z,27.69
2023-07-03T09:39:37.277Z,27.82
2023-07-03T09:45:23.674Z,28.51
2023-07-03T09:51:13.904Z,28.84
2023-07-03T09:56:58.642Z,29.31
2023-07-03T10:08:41.865Z,29.58
2023-07-03T10:14:32.749Z,29.41
2023-07-03T10:20:22.786Z,29.63
2023-07-03T10:26:12.780Z,30.57
2023-07-03T10:31:59.104Z,30.43
2023-07-03T10:37:45.890Z,30.61
2023-07-03T10:43:33.884Z,30.29
2023-07-03T10:49:21.910Z,30.43
2023-07-03T10:55:12.160Z,30.91
2023-07-03T11:01:00.719Z,31.43
2023-07-03T11:06:49.871Z,31.39
2023-07-03T11:12:39.447Z,31.37
2023-07-03T11:24:38.404Z,31.29
2023-07-03T11:30:24.849Z,31.67
2023-07-03T11:36:14.942Z,32.05
2023-07-03T11:48:00.863Z,32.84
2023-07-03T11:53:47.845Z,33.03
2023-07-03T11:59:36.631Z,33.19
2023-07-03T12:05:32.074Z,33.32
2023-07-03T12:11:16.616Z,33.31
2023-07-03T12:17:01.212Z,33.28
2023-07-03T12:22:46.710Z,33.03
2023-07-03T12:28:32.182Z,33.37
2023-07-03T12:34:21.598Z,33.19
2023-07-03T12:40:08.696Z,33.07
2023-07-03T12:45:55.022Z,33.03
2023-07-03T12:51:44.340Z,33.25
2023-07-03T12:57:32.051Z,32.95
2023-07-03T13:03:18.592Z,32.98
2023-07-03T13:09:03.948Z,32.78
2023-07-03T13:14:58.570Z,32.53
2023-07-03T13:20:48.032Z,32.6
2023-07-03T13:26:32.381Z,32.28
2023-07-03T13:32:17.966Z,32.18
2023-07-03T13:38:18.800Z,32.47
2023-07-03T13:44:03.134Z,32.79
2023-07-03T13:49:47.341Z,32.81
2023-07-03T13:55:31.868Z,32.95
2023-07-03T14:01:25.336Z,33.14
2023-07-03T14:07:11.098Z,33.08
2023-07-03T14:12:55.375Z,33.27
2023-07-03T14:18:40.107Z,33.33
2023-07-03T14:24:24.513Z,33.27
2023-07-03T14:30:10.003Z,32.88
2023-07-03T14:35:54.345Z,32.71
2023-07-03T14:41:38.870Z,32.54
2023-07-03T14:47:23.340Z,32.44
2023-07-03T14:53:08.215Z,32.63
2023-07-03T14:58:52.601Z,32.86
2023-07-03T15:04:37.058Z,32.7
2023-07-03T15:10:21.922Z,32.61
2023-07-03T15:16:06.205Z,32.41
2023-07-03T15:21:50.525Z,32.62
2023-07-03T15:27:34.802Z,32.41
2023-07-03T15:33:19.033Z,32.76
2023-07-03T15:39:03.382Z,32.88
2023-07-03T15:44:52.554Z,33.02
2023-07-03T15:50:36.976Z,33.24
2023-07-03T15:56:21.195Z,33.25
2023-07-03T16:02:07.451Z,33.22
2023-07-03T16:07:51.637Z,33.49
2023-07-03T16:13:39.618Z,33.71
2023-07-03T16:19:26.968Z,34.07
2023-07-03T16:25:11.783Z,34.43
2023-07-03T16:31:07.609Z,34.53
2023-07-03T16:36:53.785Z,34.77
2023-07-03T16:42:38.537Z,36.18
2023-07-03T16:48:23.009Z,37.98
2023-07-03T16:54:07.506Z,39.35
2023-07-03T16:59:51.712Z,40.3
2023-07-03T17:05:38.364Z,40.39
2023-07-03T17:11:23.045Z,40.41
2023-07-03T17:17:07.576Z,40.52
2023-07-03T17:22:51.900Z,38.99
2023-07-03T17:28:36.025Z,39.65
2023-07-03T17:34:20.337Z,39.19
2023-07-03T17:40:05.088Z,38.99
2023-07-03T17:45:49.541Z,38.21
2023-07-03T17:51:36.229Z,37.07
2023-07-03T17:57:20.514Z,36.22
2023-07-03T18:03:04.880Z,35.3
2023-07-03T18:08:49.972Z,34.61
2023-07-03T18:14:34.557Z,34.37
2023-07-03T18:20:18.808Z,33.66
2023-07-03T18:26:03.133Z,33.86
2023-07-03T18:31:47.607Z,33.36
2023-07-03T18:37:32.372Z,32.88
2023-07-03T18:43:17.447Z,32.49
2023-07-03T18:49:01.785Z,32.17
2023-07-03T18:54:46.044Z,31.81
2023-07-03T19:00:30.328Z,31.54
2023-07-03T19:06:16.791Z,31.22
2023-07-03T19:12:01.099Z,30.93
2023-07-03T19:17:48.787Z,30.6
2023-07-03T19:23:33.468Z,30.27
2023-07-03T19:29:17.751Z,29.98
2023-07-03T19:35:02.098Z,29.72
2023-07-03T19:40:46.366Z,29.44
2023-07-03T19:46:30.473Z,29.14
2023-07-03T19:52:14.873Z,28.94
2023-07-03T19:58:00.121Z,28.72
2023-07-03T20:03:44.554Z,28.53
2023-07-03T20:09:29.867Z,28.33
2023-07-03T20:15:14.191Z,28.15
2023-07-03T20:20:58.505Z,27.98
2023-07-03T20:26:42.678Z,27.83
2023-07-03T20:32:26.888Z,27.68
2023-07-03T20:38:11.382Z,27.52
2023-07-03T20:43:56.296Z,27.35
2023-07-03T20:49:40.651Z,27.22
2023-07-03T20:55:24.889Z,27.14
2023-07-03T21:01:14.261Z,27.02
2023-07-03T21:06:59.623Z,26.92
2023-07-03T21:12:43.932Z,26.77
2023-07-03T21:18:28.159Z,26.63
2023-07-03T21:24:12.974Z,26.52
2023-07-03T21:29:57.132Z,26.44
2023-07-03T21:35:41.374Z,26.32
2023-07-03T21:41:26.695Z,26.2
2023-07-03T21:47:11.140Z,26.13
2023-07-03T21:52:55.394Z,26.04
2023-07-03T21:58:40.740Z,25.94
2023-07-03T22:04:24.915Z,25.88
2023-07-03T22:10:10.137Z,25.81
2023-07-03T22:15:54.588Z,25.72
2023-07-03T22:21:40.113Z,25.65
2023-07-03T22:27:24.332Z,25.55
2023-07-03T22:33:08.831Z,25.46
2023-07-03T22:38:53.213Z,25.33
2023-07-03T22:44:37.494Z,25.24
2023-07-03T22:50:21.912Z,25.16
2023-07-03T22:56:07.076Z,25.08
2023-07-03T23:01:52.275Z,25.02
2023-07-03T23:07:36.614Z,24.94
2023-07-03T23:13:21.643Z,24.84
2023-07-03T23:19:07.277Z,24.78
2023-07-03T23:24:53.098Z,24.7
2023-07-03T23:30:38.314Z,24.64
2023-07-03T23:36:22.627Z,24.57
2023-07-03T23:42:07.581Z,24.5
2023-07-03T23:47:51.931Z,24.42
2023-07-03T23:53:37.146Z,24.36
2023-07-03T23:59:21.255Z,24.31
